Time;durP1;ratioP1;P1;durP2;ratioP2;P2;SDS_P1;SDS_P2;PMS_P1;PMS_P2;Temp;Humidity;BMP_temperature;BMP_pressure;BME280_temperature;BME280_humidity;BME280_pressure;Samples;Min_cycle;Max_cycle;Signal;HPM_P1;HPM_P2
2022/02/25 00:00:35;;;;;;;0.10;0.10;;;5.00;99.90;4.10;100147.00;;;;4938730;28;109881;-69
2022/02/25 00:03:01;;;;;;;0.50;0.30;;;4.30;99.90;4.10;100152.00;;;;4937694;28;93377;-70
2022/02/25 00:05:27;;;;;;;1.20;0.40;;;4.30;99.90;4.10;100160.00;;;;4929801;28;92599;-67
2022/02/25 00:07:53;;;;;;;0.27;0.20;;;4.20;99.90;4.10;100182.00;;;;4919352;28;92156;-68
2022/02/25 00:10:19;;;;;;;0.37;0.37;;;4.30;99.90;4.10;100180.00;;;;4935555;28;92884;-66
2022/02/25 00:12:46;;;;;;;0.37;0.30;;;4.20;99.90;4.10;100187.00;;;;4919822;28;98982;-67
2022/02/25 00:15:12;;;;;;;0.40;0.40;;;4.20;99.90;4.10;100192.00;;;;4919060;28;93545;-65
2022/02/25 00:17:38;;;;;;;0.23;0.23;;;4.20;99.90;4.10;100189.00;;;;4926036;28;109942;-65
2022/02/25 00:20:05;;;;;;;0.80;0.70;;;4.30;99.90;4.10;100201.00;;;;4927324;28;92698;-65
2022/02/25 00:22:31;;;;;;;0.73;0.50;;;4.30;99.90;4.10;100203.00;;;;4919909;28;98107;-66
2022/02/25 00:24:56;;;;;;;0.43;0.43;;;4.80;99.90;4.00;100206.00;;;;4919686;28;106472;-65
2022/02/25 00:27:22;;;;;;;0.87;0.50;;;4.20;99.90;4.00;100211.00;;;;4919422;28;112121;-65
2022/02/25 00:29:48;;;;;;;0.50;0.50;;;4.30;99.90;4.00;100197.00;;;;4917220;28;96528;-65
2022/02/25 00:32:13;;;;;;;1.20;0.57;;;4.20;99.90;4.00;100214.00;;;;4919278;28;121966;-67
2022/02/25 00:34:39;;;;;;;0.97;0.40;;;4.20;99.90;3.90;100219.00;;;;4937060;28;121547;-67
2022/02/25 00:37:05;;;;;;;0.33;0.33;;;4.20;99.90;3.90;100210.00;;;;4939314;28;110953;-67
2022/02/25 00:39:30;;;;;;;1.10;0.50;;;4.10;99.90;3.90;100214.00;;;;4938350;28;93779;-66
2022/02/25 00:41:56;;;;;;;0.40;0.40;;;4.10;99.90;3.80;100215.00;;;;4938661;28;93519;-67
2022/02/25 00:44:22;;;;;;;0.50;0.50;;;4.60;99.90;3.80;100222.00;;;;4936431;28;114297;-67
2022/02/25 00:46:47;;;;;;;1.13;0.47;;;4.10;99.90;3.80;100235.00;;;;4938379;28;110520;-66
2022/02/25 00:49:13;;;;;;;1.00;0.70;;;4.00;99.90;3.70;100240.00;;;;4937659;28;109294;-66
2022/02/25 00:51:39;;;;;;;0.67;0.50;;;4.70;99.90;3.70;100239.00;;;;4938532;28;110065;-66
2022/02/25 00:54:04;;;;;;;0.60;0.40;;;3.90;99.90;3.70;100243.00;;;;4937718;28;123425;-66
2022/02/25 00:56:30;;;;;;;1.00;0.60;;;3.80;99.90;3.70;100236.00;;;;4939016;28;111423;-65
2022/02/25 00:58:56;;;;;;;0.70;0.70;;;3.90;99.90;3.70;100237.00;;;;4936127;28;108608;-65
2022/02/25 01:01:21;;;;;;;1.53;1.00;;;4.00;99.90;3.80;100238.00;;;;4928415;28;110973;-65
2022/02/25 01:03:47;;;;;;;1.07;0.93;;;3.90;99.90;3.80;100241.00;;;;4914926;28;123712;-64
2022/02/25 01:06:14;;;;;;;0.83;0.60;;;4.00;99.90;3.80;100251.00;;;;4915909;28;109799;-66
2022/02/25 01:08:40;;;;;;;1.07;0.97;;;4.00;99.90;3.80;100246.00;;;;4914166;28;93149;-65
2022/02/25 01:11:06;;;;;;;0.30;0.30;;;4.00;99.90;3.80;100255.00;;;;4917253;28;93586;-66
2022/02/25 01:13:32;;;;;;;1.27;1.17;;;4.00;99.90;3.80;100247.00;;;;4912506;28;121922;-65
2022/02/25 01:15:57;;;;;;;1.47;1.03;;;4.00;99.90;3.80;100258.00;;;;4916195;28;92819;-64
2022/02/25 01:18:23;;;;;;;1.43;1.03;;;4.00;99.90;3.80;100264.00;;;;4915538;28;107618;-65
2022/02/25 01:20:49;;;;;;;1.43;0.90;;;4.00;99.90;3.70;100265.00;;;;4915482;28;114632;-65
2022/02/25 01:23:14;;;;;;;1.37;0.93;;;4.00;99.90;3.70;100273.00;;;;4928122;28;92830;-65
2022/02/25 01:25:40;;;;;;;1.33;1.07;;;4.40;99.90;3.80;100278.00;;;;4934860;28;101670;-64
2022/02/25 01:28:06;;;;;;;1.50;1.17;;;3.90;99.90;3.80;100276.00;;;;4933565;28;108260;-64
2022/02/25 01:30:32;;;;;;;1.30;1.10;;;3.90;99.90;3.80;100280.00;;;;4934468;28;102143;-64
2022/02/25 01:32:57;;;;;;;0.67;0.60;;;4.00;99.90;3.80;100284.00;;;;4935428;28;92855;-64
2022/02/25 01:35:25;;;;;;;1.00;0.70;;;4.00;99.90;3.80;100285.00;;;;4934950;28;110247;-63
2022/02/25 01:37:51;;;;;;;1.23;1.03;;;4.00;99.90;3.90;100293.00;;;;4926121;28;93044;-65
2022/02/25 01:40:17;;;;;;;0.87;0.87;;;4.70;99.90;3.90;100287.00;;;;4915450;28;93966;-64
2022/02/25 01:42:53;;;;;;;1.53;0.70;;;4.00;99.90;3.90;100292.00;;;;4915300;28;114168;-65
2022/02/25 01:45:20;;;;;;;0.83;0.83;;;4.80;99.90;3.90;100286.00;;;;4918685;28;110206;-64
2022/02/25 01:47:47;;;;;;;0.87;0.87;;;4.10;99.90;3.90;100300.00;;;;4926946;28;93223;-64
2022/02/25 01:50:14;;;;;;;1.63;0.93;;;4.00;99.90;3.80;100303.00;;;;4915574;28;112559;-64
2022/02/25 01:53:05;;;;;;;1.10;1.00;;;4.00;99.90;3.80;100302.00;;;;4915589;28;98747;-65
2022/02/25 01:55:33;;;;;;;0.93;0.80;;;4.00;99.90;3.70;100315.00;;;;4913929;28;92911;-64
2022/02/25 01:57:59;;;;;;;2.63;1.33;;;4.10;99.90;3.70;100305.00;;;;4920739;28;92808;-64
2022/02/25 02:00:26;;;;;;;0.80;0.80;;;3.90;99.90;3.70;100318.00;;;;4933969;28;93151;-64
2022/02/25 02:02:52;;;;;;;1.10;1.00;;;3.90;99.90;3.70;100305.00;;;;4934796;28;94329;-64
2022/02/25 02:05:19;;;;;;;0.50;0.50;;;3.80;99.90;3.70;100312.00;;;;4934576;28;93027;-63
2022/02/25 02:07:45;;;;;;;1.40;1.00;;;3.80;99.90;3.60;100323.00;;;;4932361;28;92728;-64
2022/02/25 02:10:12;;;;;;;0.80;0.80;;;3.80;99.90;3.60;100308.00;;;;4933480;28;121252;-64
2022/02/25 02:12:37;;;;;;;0.70;0.63;;;3.80;99.90;3.60;100318.00;;;;4933030;28;92919;-63
2022/02/25 02:15:05;;;;;;;0.77;0.77;;;3.80;99.90;3.50;100326.00;;;;4934481;28;95257;-63
2022/02/25 02:17:32;;;;;;;2.07;1.07;;;3.80;99.90;3.50;100340.00;;;;4926925;28;99437;-63
2022/02/25 02:20:00;;;;;;;0.97;0.87;;;3.70;99.90;3.40;100348.00;;;;4929496;28;114536;-64
2022/02/25 02:22:27;;;;;;;1.13;0.63;;;3.90;99.90;3.40;100348.00;;;;4934206;28;94238;-62
2022/02/25 02:24:53;;;;;;;0.73;0.60;;;3.60;99.90;3.30;100353.00;;;;4934538;28;100654;-64
2022/02/25 02:27:19;;;;;;;0.77;0.63;;;3.60;99.90;3.30;100354.00;;;;4934762;28;93026;-64
2022/02/25 02:29:45;;;;;;;0.97;0.87;;;3.50;99.90;3.20;100347.00;;;;4934482;28;93886;-64
2022/02/25 02:32:11;;;;;;;1.90;0.80;;;3.50;99.90;3.20;100352.00;;;;4936050;28;121689;-64
2022/02/25 02:34:38;;;;;;;0.73;0.70;;;3.40;99.90;3.20;100357.00;;;;4935043;28;92318;-64
2022/02/25 02:37:07;;;;;;;2.50;0.70;;;3.40;99.90;3.20;100364.00;;;;4947456;28;92802;-62
2022/02/25 02:39:37;;;;;;;1.70;0.67;;;3.40;99.90;3.10;100368.00;;;;4933605;28;92778;-63
2022/02/25 02:42:04;;;;;;;0.70;0.70;;;3.40;99.90;3.10;100358.00;;;;4930486;28;95207;-63
2022/02/25 02:44:30;;;;;;;1.00;0.73;;;3.30;99.90;3.00;100371.00;;;;4915105;28;92776;-64
2022/02/25 02:46:56;;;;;;;0.97;0.60;;;3.60;99.90;3.00;100374.00;;;;4918178;28;109058;-63
2022/02/25 02:49:21;;;;;;;0.73;0.73;;;3.20;99.90;2.90;100381.00;;;;4933540;28;110645;-63
2022/02/25 02:51:47;;;;;;;0.93;0.93;;;3.10;99.90;2.90;100375.00;;;;4932780;28;122578;-64
2022/02/25 02:54:13;;;;;;;1.20;0.80;;;3.10;99.90;2.80;100386.00;;;;4933864;28;92725;-64
2022/02/25 02:56:38;;;;;;;1.40;0.87;;;3.70;99.90;2.80;100377.00;;;;4948556;28;110425;-63
2022/02/25 02:59:04;;;;;;;1.00;0.90;;;3.00;99.90;2.70;100385.00;;;;4935962;28;93127;-64
2022/02/25 03:01:32;;;;;;;1.33;0.93;;;3.00;99.90;2.80;100404.00;;;;4932921;28;122756;-64
2022/02/25 03:03:59;;;;;;;2.77;1.50;;;3.00;99.90;2.70;100396.00;;;;4934646;28;92927;-64
2022/02/25 03:06:26;;;;;;;1.07;0.83;;;3.00;99.90;2.70;100399.00;;;;4933918;28;93794;-64
2022/02/25 03:08:53;;;;;;;1.13;1.03;;;3.00;99.90;2.60;100396.00;;;;4933407;28;93478;-65
2022/02/25 03:11:19;;;;;;;1.37;1.20;;;2.90;99.90;2.60;100405.00;;;;4933338;28;98472;-63
2022/02/25 03:13:46;;;;;;;1.93;1.40;;;2.80;99.90;2.60;100406.00;;;;4933694;28;92853;-65
2022/02/25 03:16:11;;;;;;;1.07;0.87;;;2.70;99.90;2.50;100413.00;;;;4917358;28;98952;-64
2022/02/25 03:18:37;;;;;;;1.23;1.03;;;2.70;99.90;2.50;100411.00;;;;4914198;28;93899;-64
2022/02/25 03:21:03;;;;;;;0.73;0.70;;;2.70;99.90;2.50;100415.00;;;;4927924;28;93557;-64
2022/02/25 03:23:29;;;;;;;2.63;0.93;;;2.70;99.90;2.40;100421.00;;;;4928965;28;100094;-64
2022/02/25 03:25:54;;;;;;;0.50;0.50;;;2.60;99.90;2.40;100434.00;;;;4932911;28;109173;-63
2022/02/25 03:28:20;;;;;;;1.57;1.10;;;2.60;99.90;2.40;100432.00;;;;4932176;28;103125;-63
2022/02/25 03:30:46;;;;;;;1.13;0.80;;;2.50;99.90;2.40;100436.00;;;;4931486;28;122695;-64
2022/02/25 03:33:11;;;;;;;1.00;0.97;;;2.60;99.90;2.30;100446.00;;;;4920632;28;110366;-64
2022/02/25 03:35:38;;;;;;;1.20;0.90;;;2.60;99.90;2.30;100443.00;;;;4919406;28;108549;-65
2022/02/25 03:38:04;;;;;;;3.27;1.03;;;2.70;99.90;2.30;100447.00;;;;4931479;28;92901;-64
2022/02/25 03:40:29;;;;;;;1.60;1.30;;;2.60;99.90;2.30;100459.00;;;;4933273;28;93279;-65
2022/02/25 03:42:56;;;;;;;2.83;1.00;;;2.70;99.90;2.30;100459.00;;;;4932035;28;110529;-66
2022/02/25 03:45:22;;;;;;;1.90;1.07;;;2.60;99.90;2.30;100468.00;;;;4920391;28;108356;-64
2022/02/25 03:47:48;;;;;;;4.63;1.73;;;2.50;99.90;2.40;100484.00;;;;4933649;28;93101;-65
2022/02/25 03:50:14;;;;;;;1.77;1.00;;;3.30;99.90;2.40;100472.00;;;;4932261;28;121060;-64
2022/02/25 03:52:41;;;;;;;1.43;1.33;;;2.60;99.90;2.50;100474.00;;;;4933522;28;92892;-64
2022/02/25 03:55:08;;;;;;;1.27;1.17;;;2.70;99.90;2.40;100471.00;;;;4927819;28;108058;-64
2022/02/25 03:57:34;;;;;;;5.00;1.43;;;2.60;99.90;2.50;100486.00;;;;4917230;28;93056;-65
2022/02/25 04:00:00;;;;;;;3.27;1.63;;;2.70;99.90;2.50;100481.00;;;;4915305;28;94025;-64
2022/02/25 04:02:27;;;;;;;1.43;1.33;;;2.70;99.90;2.50;100495.00;;;;4913780;28;92789;-65
2022/02/25 04:04:53;;;;;;;1.33;1.13;;;2.70;99.90;2.50;100485.00;;;;4914582;28;93086;-64
2022/02/25 04:07:18;;;;;;;2.20;1.43;;;2.70;99.90;2.50;100499.00;;;;4913944;28;104362;-64
2022/02/25 04:09:44;;;;;;;2.43;1.63;;;2.70;99.90;2.50;100499.00;;;;4911979;28;122945;-64
2022/02/25 04:12:10;;;;;;;2.63;1.40;;;2.10;99.90;2.40;100494.00;;;;4924469;28;109858;-64
2022/02/25 04:14:36;;;;;;;1.90;1.73;;;3.60;99.90;2.40;100499.00;;;;4933004;28;92733;-64
2022/02/25 04:17:03;;;;;;;2.20;1.70;;;2.70;99.90;2.40;100502.00;;;;4932084;28;93394;-64
2022/02/25 04:19:30;;;;;;;3.40;1.80;;;2.60;99.90;2.30;100505.00;;;;4932235;28;93751;-66
2022/02/25 04:21:56;;;;;;;2.40;1.97;;;2.60;99.90;2.30;100505.00;;;;4932304;28;110204;-64
2022/02/25 04:24:21;;;;;;;2.20;1.40;;;2.50;99.90;2.30;100515.00;;;;4933277;28;92954;-64
2022/02/25 04:26:48;;;;;;;1.83;1.40;;;2.50;99.90;2.30;100508.00;;;;4932286;28;122017;-64
2022/02/25 04:29:14;;;;;;;1.53;1.43;;;2.50;99.90;2.20;100522.00;;;;4932369;28;92713;-64
2022/02/25 04:31:40;;;;;;;2.53;1.80;;;2.40;99.90;2.20;100516.00;;;;4933094;28;92866;-64
2022/02/25 04:34:06;;;;;;;1.40;1.20;;;2.50;99.90;2.10;100521.00;;;;4933707;28;109131;-65
2022/02/25 04:36:35;;;;;;;4.50;1.97;;;2.30;99.90;2.10;100521.00;;;;4936135;28;93440;-64
2022/02/25 04:39:01;;;;;;;2.00;1.80;;;2.30;99.90;2.10;100524.00;;;;4935691;28;92925;-65
2022/02/25 04:41:27;;;;;;;2.37;1.33;;;2.40;99.90;2.10;100520.00;;;;4916828;28;92666;-65
2022/02/25 04:43:52;;;;;;;2.27;1.60;;;2.30;99.90;2.00;100525.00;;;;4933585;28;107898;-65
2022/02/25 04:46:21;;;;;;;2.97;1.77;;;2.30;99.90;2.00;100531.00;;;;4934951;28;122254;-64
2022/02/25 04:48:47;;;;;;;1.83;1.73;;;2.20;99.90;2.00;100531.00;;;;4918863;28;109718;-66
2022/02/25 04:51:16;;;;;;;1.63;1.53;;;2.20;99.90;2.00;100539.00;;;;4914910;28;109503;-64
2022/02/25 04:53:43;;;;;;;1.90;1.63;;;2.20;99.90;2.00;100552.00;;;;4916970;28;92940;-65
2022/02/25 04:56:10;;;;;;;3.57;2.03;;;2.20;99.90;1.90;100544.00;;;;4915917;28;107941;-64
2022/02/25 04:58:36;;;;;;;2.17;1.97;;;2.10;99.90;1.90;100546.00;;;;4921550;28;93503;-64
2022/02/25 05:01:02;;;;;;;2.07;1.80;;;2.40;99.90;1.80;100547.00;;;;4935735;28;92081;-64
2022/02/25 05:03:28;;;;;;;1.60;1.47;;;2.10;99.90;1.80;100548.00;;;;4936116;28;93073;-64
2022/02/25 05:05:54;;;;;;;1.50;1.27;;;2.00;99.90;1.80;100551.00;;;;4935863;28;93172;-64
2022/02/25 05:08:19;;;;;;;2.00;1.10;;;2.30;99.90;1.80;100553.00;;;;4925841;28;96466;-65
2022/02/25 05:10:45;;;;;;;3.77;2.07;;;2.00;99.90;1.80;100560.00;;;;4915415;28;111816;-65
2022/02/25 05:13:10;;;;;;;4.30;2.20;;;2.00;99.90;1.80;100567.00;;;;4915712;28;92766;-65
2022/02/25 05:21:05;;;;;;;2.33;2.00;;;2.00;99.90;1.80;100580.00;;;;4916700;28;92988;-65
2022/02/25 05:23:31;;;;;;;2.20;2.00;;;2.00;99.90;1.80;100595.00;;;;4917162;28;92939;-65
2022/02/25 05:25:57;;;;;;;2.30;1.83;;;2.10;99.90;1.70;100598.00;;;;4914404;28;107831;-64
2022/02/25 05:28:23;;;;;;;4.10;1.63;;;2.50;99.90;1.70;100590.00;;;;4922175;28;96164;-65
2022/02/25 05:30:48;;;;;;;5.37;2.67;;;2.70;99.90;1.70;100598.00;;;;4934071;28;96214;-64
2022/02/25 05:33:14;;;;;;;3.27;2.17;;;1.90;99.90;1.70;100617.00;;;;4928419;28;108873;-64
2022/02/25 05:35:40;;;;;;;2.43;1.40;;;1.90;99.90;1.70;100602.00;;;;4923809;28;122118;-64
2022/02/25 05:38:06;;;;;;;3.67;1.77;;;2.00;99.90;1.70;100626.00;;;;4921253;28;92904;-66
2022/02/25 05:40:32;;;;;;;3.00;2.23;;;1.90;99.90;1.60;100621.00;;;;4930925;28;109494;-64
2022/02/25 05:43:00;;;;;;;3.23;2.17;;;2.70;99.90;1.60;100629.00;;;;4931837;28;92809;-65
2022/02/25 05:45:26;;;;;;;1.57;1.43;;;1.80;99.90;1.60;100636.00;;;;4928504;28;94087;-65
2022/02/25 05:47:53;;;;;;;3.83;1.83;;;1.80;99.90;1.60;100633.00;;;;4931804;28;93788;-64
2022/02/25 05:50:20;;;;;;;2.40;2.20;;;1.80;99.90;1.60;100648.00;;;;4932076;28;92664;-64
2022/02/25 05:52:47;;;;;;;2.67;1.80;;;1.80;99.90;1.70;100650.00;;;;4925826;28;99996;-64
2022/02/25 05:55:16;;;;;;;2.37;1.77;;;1.90;99.90;1.70;100651.00;;;;4931225;28;93984;-66
2022/02/25 05:57:42;;;;;;;1.40;1.30;;;2.10;99.90;1.80;100643.00;;;;4928540;28;93895;-64
2022/02/25 06:00:11;;;;;;;3.00;2.33;;;2.00;99.90;1.80;100649.00;;;;4930080;28;95161;-64
2022/02/25 06:02:37;;;;;;;5.50;1.67;;;2.10;99.90;1.90;100651.00;;;;4930195;28;93233;-64
2022/02/25 06:05:03;;;;;;;3.13;1.60;;;2.10;99.90;1.90;100658.00;;;;4925630;28;93075;-65
2022/02/25 06:07:29;;;;;;;1.60;1.27;;;2.10;99.90;2.00;100665.00;;;;4931479;28;93749;-65
2022/02/25 06:09:55;;;;;;;1.53;1.43;;;2.30;99.90;1.90;100661.00;;;;4930036;28;110172;-64
2022/02/25 06:12:21;;;;;;;1.70;1.53;;;2.10;99.90;1.90;100665.00;;;;4930425;28;108997;-63
2022/02/25 06:14:46;;;;;;;2.60;1.83;;;3.10;99.90;1.90;100675.00;;;;4935795;28;122526;-64
2022/02/25 06:17:12;;;;;;;1.67;1.10;;;2.20;99.90;1.90;100672.00;;;;4922935;28;121460;-63
2022/02/25 06:19:38;;;;;;;1.20;1.07;;;2.20;99.90;1.90;100670.00;;;;4929670;28;102079;-64
2022/02/25 06:22:03;;;;;;;4.00;1.47;;;2.10;99.90;1.90;100676.00;;;;4930636;28;94003;-63
2022/02/25 06:24:29;;;;;;;2.17;1.37;;;2.20;99.90;1.90;100680.00;;;;4930238;28;123224;-65
2022/02/25 06:26:55;;;;;;;2.37;1.57;;;2.80;99.90;1.90;100689.00;;;;4931469;28;94211;-63
2022/02/25 06:29:21;;;;;;;1.93;1.47;;;2.10;99.90;1.90;100687.00;;;;4925118;28;110903;-64
2022/02/25 06:31:47;;;;;;;1.53;1.43;;;2.20;99.90;2.00;100692.00;;;;4931080;28;92538;-64
2022/02/25 06:34:12;;;;;;;2.40;1.50;;;2.20;99.90;2.00;100699.00;;;;4935787;28;107498;-65
2022/02/25 06:36:38;;;;;;;4.50;1.47;;;2.20;99.90;2.20;100702.00;;;;4930837;28;104411;-64
2022/02/25 06:39:04;;;;;;;1.83;1.30;;;2.30;99.90;2.30;100709.00;;;;4925886;28;109928;-65
2022/02/25 06:41:30;;;;;;;2.10;1.43;;;3.20;99.90;2.40;100709.00;;;;4930939;28;93268;-65
2022/02/25 06:43:56;;;;;;;1.27;1.13;;;2.50;99.90;2.50;100708.00;;;;4928114;28;122267;-64
2022/02/25 06:46:23;;;;;;;2.07;1.67;;;2.80;99.90;2.70;100704.00;;;;4930411;28;93728;-63
2022/02/25 06:48:49;;;;;;;1.63;1.40;;;3.30;99.90;2.90;100716.00;;;;4930286;28;99950;-64
2022/02/25 06:51:15;;;;;;;2.77;1.47;;;3.00;99.90;3.00;100717.00;;;;4930088;28;92797;-65
2022/02/25 06:53:41;;;;;;;2.10;1.60;;;3.10;99.90;3.10;100717.00;;;;4928366;28;93085;-64
2022/02/25 06:56:08;;;;;;;1.37;1.20;;;3.20;99.90;3.10;100724.00;;;;4930474;28;92886;-65
2022/02/25 06:58:34;;;;;;;2.60;1.20;;;3.30;99.90;3.10;100731.00;;;;4929866;28;93221;-64
2022/02/25 07:01:02;;;;;;;2.20;1.57;;;3.30;99.90;3.10;100724.00;;;;4925905;28;92801;-64
2022/02/25 07:03:28;;;;;;;3.33;1.47;;;3.30;99.90;3.20;100721.00;;;;4925465;28;110397;-64
2022/02/25 07:05:54;;;;;;;1.27;1.17;;;3.30;99.90;3.30;100723.00;;;;4929153;28;111947;-64
2022/02/25 07:08:23;;;;;;;2.60;1.40;;;3.50;99.90;3.40;100731.00;;;;4931612;28;93178;-64
2022/02/25 07:10:50;;;;;;;1.83;1.37;;;3.60;99.90;3.60;100737.00;;;;4929694;28;93798;-65
2022/02/25 07:13:16;;;;;;;1.37;1.10;;;4.30;99.90;3.70;100729.00;;;;4930095;28;93817;-64
2022/02/25 07:15:42;;;;;;;4.13;1.50;;;3.90;99.90;3.80;100733.00;;;;4929313;28;122772;-64
2022/02/25 07:18:09;;;;;;;1.80;1.43;;;4.00;99.90;4.00;100742.00;;;;4929193;28;92743;-65
2022/02/25 07:20:35;;;;;;;1.97;1.30;;;4.10;99.90;4.10;100733.00;;;;4930271;28;93020;-64
2022/02/25 07:23:05;;;;;;;1.10;1.00;;;4.20;99.90;4.20;100754.00;;;;4928161;28;102127;-65
2022/02/25 07:25:31;;;;;;;3.23;1.33;;;4.40;99.90;4.30;100758.00;;;;4924966;28;94630;-65
2022/02/25 07:27:57;;;;;;;3.27;1.20;;;4.50;99.90;4.40;100768.00;;;;4930786;28;92183;-64
2022/02/25 07:30:23;;;;;;;3.03;0.77;;;4.60;99.90;4.60;100768.00;;;;4929172;28;108678;-65
2022/02/25 07:32:50;;;;;;;6.03;2.20;;;4.80;99.90;4.60;100759.00;;;;4924064;28;93433;-65
2022/02/25 07:35:16;;;;;;;2.57;1.53;;;4.80;99.90;4.70;100772.00;;;;4928751;28;93920;-66
2022/02/25 07:37:42;;;;;;;2.90;1.43;;;4.80;99.90;4.80;100764.00;;;;4929362;28;109377;-65
2022/02/25 07:40:12;;;;;;;1.30;0.83;;;4.90;99.90;4.80;100767.00;;;;4930104;28;92688;-64
2022/02/25 07:42:38;;;;;;;1.90;1.10;;;5.00;99.90;4.90;100777.00;;;;4929841;28;93391;-65
2022/02/25 07:45:04;;;;;;;0.60;0.47;;;5.00;99.90;5.00;100768.00;;;;4928804;28;98731;-65
2022/02/25 07:47:30;;;;;;;2.33;0.97;;;5.20;99.90;5.10;100781.00;;;;4926978;28;93202;-65
2022/02/25 07:49:56;;;;;;;1.63;0.80;;;5.30;99.90;5.30;100785.00;;;;4928598;28;110128;-65
2022/02/25 07:52:22;;;;;;;8.43;2.00;;;5.30;99.90;5.30;100768.00;;;;4929986;28;92442;-65
2022/02/25 07:54:49;;;;;;;1.70;0.83;;;5.40;99.90;5.50;100785.00;;;;4928986;28;110087;-66
2022/02/25 07:57:15;;;;;;;3.43;1.00;;;5.60;99.90;5.60;100779.00;;;;4924574;28;98979;-65
2022/02/25 07:59:45;;;;;;;0.97;0.73;;;6.40;99.90;5.70;100789.00;;;;4928699;28;93994;-65
2022/02/25 08:02:11;;;;;;;0.57;0.57;;;5.80;99.90;5.80;100796.00;;;;4935943;28;93415;-63
2022/02/25 08:04:36;;;;;;;1.47;0.60;;;5.90;99.90;5.80;100801.00;;;;4930664;28;121996;-65
2022/02/25 08:07:03;;;;;;;2.03;0.70;;;6.00;99.90;5.90;100802.00;;;;4923896;28;105388;-63
2022/02/25 08:09:29;;;;;;;0.97;0.70;;;6.10;99.90;6.00;100810.00;;;;4931088;28;93107;-66
2022/02/25 08:11:55;;;;;;;1.70;0.80;;;6.70;99.90;6.00;100798.00;;;;4928989;28;95722;-64
2022/02/25 08:14:21;;;;;;;1.03;0.90;;;6.20;98.50;6.10;100805.00;;;;4928195;28;115728;-65
2022/02/25 08:16:48;;;;;;;4.17;0.80;;;6.80;97.20;6.10;100798.00;;;;4932887;28;108888;-67
2022/02/25 08:19:14;;;;;;;1.87;1.00;;;6.30;96.80;6.20;100782.00;;;;4932664;28;93001;-65
2022/02/25 08:21:41;;;;;;;1.27;0.97;;;6.40;97.00;6.30;100811.00;;;;4932185;28;113415;-67
2022/02/25 08:24:07;;;;;;;0.70;0.70;;;6.50;96.70;6.50;100803.00;;;;4932791;28;93772;-66
2022/02/25 08:26:33;;;;;;;1.70;0.53;;;6.60;95.20;6.50;100806.00;;;;4930113;28;100088;-66
2022/02/25 08:28:59;;;;;;;1.33;0.80;;;6.80;95.20;6.70;100819.00;;;;4933389;28;93548;-65
2022/02/25 08:31:25;;;;;;;1.33;0.70;;;6.80;94.40;6.70;100812.00;;;;4931704;28;94306;-66
2022/02/25 08:33:51;;;;;;;1.13;1.00;;;7.40;92.70;6.90;100811.00;;;;4929527;28;93367;-65
2022/02/25 08:36:18;;;;;;;3.17;1.00;;;7.00;91.80;6.90;100808.00;;;;4931753;28;110564;-66
2022/02/25 08:38:44;;;;;;;0.60;0.60;;;7.10;91.60;7.00;100822.00;;;;4933456;28;93008;-66
2022/02/25 08:41:10;;;;;;;1.37;1.03;;;7.30;90.90;7.00;100815.00;;;;4931904;28;109714;-65
2022/02/25 08:43:36;;;;;;;0.93;0.80;;;7.20;90.50;7.00;100818.00;;;;4925774;28;122742;-65
2022/02/25 08:46:02;;;;;;;2.20;0.90;;;7.10;90.30;7.10;100817.00;;;;4929314;28;110129;-65
2022/02/25 08:48:28;;;;;;;4.00;1.13;;;7.20;90.50;7.20;100822.00;;;;4931706;28;108900;-65
2022/02/25 08:50:54;;;;;;;3.57;0.90;;;7.40;88.50;7.30;100823.00;;;;4931249;28;113394;-65
2022/02/25 08:53:20;;;;;;;2.00;0.67;;;7.40;86.90;7.20;100822.00;;;;4931220;28;94014;-65
2022/02/25 08:55:46;;;;;;;0.80;0.80;;;7.40;87.70;7.30;100819.00;;;;4931504;28;96362;-65
2022/02/25 08:58:13;;;;;;;1.17;1.03;;;7.50;86.90;7.40;100821.00;;;;4927022;28;92930;-65
2022/02/25 09:00:39;;;;;;;1.30;0.90;;;7.50;85.80;7.40;100830.00;;;;4931273;28;93060;-66
2022/02/25 09:03:06;;;;;;;2.27;0.63;;;7.60;84.20;7.50;100827.00;;;;4931136;28;113382;-66
2022/02/25 09:05:32;;;;;;;2.57;1.27;;;7.60;84.10;7.50;100827.00;;;;4931346;28;110394;-66
2022/02/25 09:07:57;;;;;;;2.57;0.67;;;7.60;83.10;7.60;100816.00;;;;4930453;28;95087;-66
2022/02/25 09:10:24;;;;;;;1.97;0.83;;;7.80;82.60;7.80;100824.00;;;;4929716;28;121799;-65
2022/02/25 09:12:51;;;;;;;1.40;1.20;;;7.90;80.60;7.80;100832.00;;;;4930543;28;113234;-66
2022/02/25 09:15:25;;;;;;;3.37;1.00;;;7.90;80.10;7.90;100831.00;;;;4932509;28;92916;-67
2022/02/25 09:17:53;;;;;;;1.80;1.13;;;8.00;80.10;8.00;100837.00;;;;4929866;28;93165;-67
2022/02/25 09:20:20;;;;;;;3.10;0.90;;;8.10;77.90;8.00;100830.00;;;;4916638;28;94394;-66
2022/02/25 09:22:47;;;;;;;1.23;1.00;;;8.10;76.10;8.00;100833.00;;;;4928780;28;93830;-66
2022/02/25 09:25:13;;;;;;;3.70;1.03;;;8.10;76.70;8.00;100835.00;;;;4930730;28;100168;-65
2022/02/25 09:27:40;;;;;;;1.10;1.00;;;8.20;77.70;8.20;100856.00;;;;4931320;28;109197;-65
2022/02/25 09:30:09;;;;;;;2.97;1.17;;;8.30;77.30;8.30;100846.00;;;;4931746;28;92253;-66
2022/02/25 09:32:36;;;;;;;1.20;1.00;;;8.40;75.40;8.20;100844.00;;;;4932072;28;93170;-65
2022/02/25 09:35:02;;;;;;;3.67;1.17;;;8.40;74.00;8.00;100848.00;;;;4931052;28;93078;-66
2022/02/25 09:37:29;;;;;;;0.70;0.70;;;8.20;73.10;8.00;100855.00;;;;4931457;28;93922;-67
2022/02/25 09:39:56;;;;;;;2.67;0.90;;;8.20;72.90;8.10;100854.00;;;;4931690;28;93881;-65
2022/02/25 09:42:22;;;;;;;5.00;1.50;;;8.20;72.60;8.00;100846.00;;;;4920822;28;113314;-65
2022/02/25 09:44:48;;;;;;;3.07;1.00;;;8.20;73.30;8.10;100838.00;;;;4930311;28;93118;-66
2022/02/25 09:47:16;;;;;;;1.20;1.10;;;8.20;72.20;8.30;100850.00;;;;4928081;28;93141;-66
2022/02/25 09:49:41;;;;;;;0.77;0.77;;;8.30;72.20;8.40;100853.00;;;;4929410;28;93412;-66
2022/02/25 09:52:13;;;;;;;2.00;1.30;;;8.50;71.80;8.40;100854.00;;;;4929737;28;122505;-66
2022/02/25 09:54:39;;;;;;;4.03;1.17;;;8.50;70.30;8.50;100863.00;;;;4930595;28;92079;-66
2022/02/25 09:57:05;;;;;;;4.57;1.20;;;8.50;71.80;8.50;100850.00;;;;4931514;28;93146;-66
2022/02/25 09:59:31;;;;;;;1.27;0.90;;;8.60;71.50;8.80;100860.00;;;;4929772;28;122955;-65
2022/02/25 10:02:06;;;;;;;3.57;0.83;;;8.80;69.90;8.70;100865.00;;;;4930721;28;94042;-65
2022/02/25 10:04:32;;;;;;;1.77;1.30;;;8.80;67.70;8.60;100871.00;;;;4925737;28;93328;-65
2022/02/25 10:06:59;;;;;;;0.93;0.70;;;8.70;66.80;8.70;100874.00;;;;4931590;28;92637;-65
2022/02/25 10:09:37;;;;;;;1.07;0.70;;;8.70;67.60;8.80;100876.00;;;;4928396;28;123016;-65
2022/02/25 10:12:09;;;;;;;0.73;0.70;;;8.80;66.80;8.80;100861.00;;;;4927942;28;93887;-65
2022/02/25 10:14:41;;;;;;;1.97;1.00;;;8.90;66.50;8.80;100858.00;;;;4924354;28;92841;-65
2022/02/25 10:17:09;;;;;;;2.37;0.77;;;8.90;65.00;8.50;100871.00;;;;4931626;28;92971;-65
2022/02/25 10:19:36;;;;;;;0.87;0.60;;;8.70;65.20;8.60;100866.00;;;;4924101;28;93846;-66
2022/02/25 10:22:39;;;;;;;1.73;0.60;;;8.60;66.20;8.70;100873.00;;;;4930786;28;92662;-66
2022/02/25 10:25:09;;;;;;;1.00;0.70;;;8.80;65.50;8.50;100881.00;;;;4927593;28;95766;-66
2022/02/25 10:27:37;;;;;;;4.33;1.00;;;8.70;63.60;8.20;100861.00;;;;4928325;28;93911;-65
2022/02/25 10:30:15;;;;;;;0.70;0.67;;;8.50;64.10;8.10;100860.00;;;;4929098;28;123821;-65
2022/02/25 10:32:47;;;;;;;2.10;1.00;;;8.30;65.90;8.10;100864.00;;;;4930198;28;93372;-64
2022/02/25 10:35:38;;;;;;;0.90;0.87;;;8.30;66.20;8.00;100878.00;;;;4931553;28;92592;-65
2022/02/25 10:38:15;;;;;;;3.77;0.80;;;8.20;66.10;8.00;100864.00;;;;4932150;28;93137;-64
2022/02/25 10:40:51;;;;;;;5.07;0.80;;;8.10;66.00;8.00;100853.00;;;;4933469;28;94099;-65
2022/02/25 10:43:19;;;;;;;1.50;0.60;;;8.10;66.00;8.10;100858.00;;;;4928191;28;110505;-65
2022/02/25 10:45:56;;;;;;;3.60;0.67;;;8.10;65.30;8.20;100851.00;;;;4931189;28;92098;-65
2022/02/25 10:48:33;;;;;;;1.43;1.00;;;8.30;64.90;8.00;100874.00;;;;4930652;28;92974;-65
2022/02/25 10:51:08;;;;;;;0.70;0.63;;;8.20;64.90;8.10;100862.00;;;;4924400;28;93246;-64
2022/02/25 10:53:47;;;;;;;1.47;0.67;;;8.20;65.20;8.20;100868.00;;;;4925608;28;122608;-65
2022/02/25 10:56:17;;;;;;;1.90;0.80;;;8.30;64.80;8.30;100850.00;;;;4926906;28;92692;-64
2022/02/25 10:58:55;;;;;;;0.60;0.50;;;8.30;63.90;8.30;100866.00;;;;4931268;28;93217;-65
2022/02/25 11:01:36;;;;;;;2.97;0.90;;;8.40;63.50;8.10;100865.00;;;;4929652;28;93728;-64
2022/02/25 11:04:13;;;;;;;0.80;0.47;;;8.30;63.10;7.90;100851.00;;;;4930510;28;92848;-65